Terminal Aerodrome Forecast
Issued by NWS

Current Version | Previous Version | Text Only | Print | Product List | Glossary On
Versions: 1 2 3 4 5 6 7 8 9 10 11 12 13 14 15 16 17 18 19 20 21 22 23 24 25 26 27 28 29 30 31 32 33 34 35 36 37 38 39
000
FTUS43 KDMX 270915 AAA
TAFMCW
TAF AMD
KMCW 270915Z 2709/2806 34011KT 5SM -SN BR SCT008 OVC015
      TEMPO 2710/2713 2SM -FZRA BR
     FM271500 31014G20KT P6SM BKN009=

USA.gov is the U.S. government's official web portal to all federal, state and local government web resources and services.